createdAt,value
2022-09-01T00:01:52.317Z,16.71
2022-09-01T00:04:40.328Z,16.70
2022-09-01T00:07:31.444Z,16.67
2022-09-01T00:10:19.438Z,16.69
2022-09-01T00:13:07.767Z,16.69
2022-09-01T00:15:57.102Z,16.78
2022-09-01T00:18:47.780Z,16.84
2022-09-01T00:21:38.762Z,16.82
2022-09-01T00:24:27.233Z,16.80
2022-09-01T00:27:15.282Z,16.79
2022-09-01T00:30:03.704Z,16.78
2022-09-01T00:32:53.157Z,16.77
2022-09-01T00:35:41.197Z,16.81
2022-09-01T00:38:29.581Z,16.79
2022-09-01T00:41:20.082Z,16.82
2022-09-01T00:44:11.882Z,16.86
2022-09-01T00:47:00.462Z,16.83
2022-09-01T00:49:52.119Z,16.76
2022-09-01T00:52:43.917Z,16.73
2022-09-01T00:55:34.612Z,16.71
2022-09-01T00:58:23.160Z,16.85
2022-09-01T01:01:13.279Z,16.80
2022-09-01T01:04:02.461Z,16.75
2022-09-01T01:06:58.790Z,16.40
2022-09-01T01:09:47.727Z,16.37
2022-09-01T01:12:40.366Z,16.59
2022-09-01T01:15:29.822Z,16.56
2022-09-01T01:18:23.199Z,16.51
2022-09-01T01:21:36.303Z,16.46
2022-09-01T01:24:27.951Z,16.49
2022-09-01T01:27:20.086Z,16.47
2022-09-01T01:30:11.041Z,16.49
2022-09-01T01:32:59.876Z,16.52
2022-09-01T01:35:48.119Z,16.40
2022-09-01T01:38:36.634Z,16.41
2022-09-01T01:41:26.803Z,16.38
2022-09-01T01:44:16.031Z,16.36
2022-09-01T01:47:09.756Z,16.30
2022-09-01T01:49:58.884Z,16.32
2022-09-01T01:52:47.249Z,16.06
2022-09-01T01:55:36.716Z,16.29
2022-09-01T01:58:28.909Z,16.21
2022-09-01T02:01:17.166Z,16.26
2022-09-01T02:04:05.731Z,16.20
2022-09-01T02:06:55.779Z,16.18
2022-09-01T02:09:47.992Z,16.12
2022-09-01T02:12:37.735Z,16.07
2022-09-01T02:15:27.100Z,16.05
2022-09-01T02:18:18.105Z,15.72
2022-09-01T02:21:15.114Z,16.08
2022-09-01T02:24:08.342Z,16.08
2022-09-01T02:26:56.757Z,16.12
2022-09-01T02:29:45.068Z,16.15
2022-09-01T02:32:34.726Z,16.07
2022-09-01T02:35:23.752Z,15.95
2022-09-01T02:38:13.968Z,15.72
2022-09-01T02:41:03.727Z,15.61
2022-09-01T02:43:51.959Z,15.55
2022-09-01T02:46:42.960Z,15.52
2022-09-01T02:49:32.315Z,15.40
2022-09-01T02:52:21.292Z,15.36
2022-09-01T02:55:09.911Z,15.28
2022-09-01T02:57:58.213Z,15.18
2022-09-01T03:00:47.231Z,15.03
2022-09-01T03:03:36.345Z,14.99
2022-09-01T03:06:26.507Z,15.02
2022-09-01T03:09:16.409Z,14.88
2022-09-01T03:12:07.166Z,14.87
2022-09-01T03:14:55.872Z,14.84
2022-09-01T03:17:43.926Z,14.88
2022-09-01T03:20:34.521Z,14.76
2022-09-01T03:23:25.270Z,14.72
2022-09-01T03:26:18.541Z,14.65
2022-09-01T03:29:06.573Z,14.56
2022-09-01T03:31:55.446Z,14.59
2022-09-01T03:34:43.821Z,14.53
2022-09-01T03:37:32.392Z,14.51
2022-09-01T03:40:22.250Z,14.43
2022-09-01T03:43:10.815Z,14.46
2022-09-01T03:46:00.789Z,14.41
2022-09-01T03:48:50.658Z,14.37
2022-09-01T03:51:40.433Z,14.32
2022-09-01T03:54:30.242Z,14.27
2022-09-01T03:57:19.903Z,14.24
2022-09-01T04:00:15.441Z,14.14
2022-09-01T04:03:07.927Z,14.24
2022-09-01T04:05:56.517Z,14.22
2022-09-01T04:08:44.761Z,14.17
2022-09-01T04:11:33.782Z,14.09
2022-09-01T04:14:25.457Z,14.11
2022-09-01T04:17:33.570Z,14.06
2022-09-01T04:20:23.477Z,13.99
2022-09-01T04:23:12.294Z,13.96
2022-09-01T04:26:08.834Z,13.90
2022-09-01T04:28:58.533Z,13.89
2022-09-01T04:31:53.413Z,13.81
2022-09-01T04:34:42.284Z,13.56
2022-09-01T04:37:32.836Z,13.69
2022-09-01T04:40:24.411Z,13.60
2022-09-01T04:43:16.723Z,13.53
2022-09-01T04:46:05.239Z,13.54
2022-09-01T04:48:55.423Z,13.57
2022-09-01T04:51:51.210Z,13.57
2022-09-01T04:54:41.439Z,13.58
2022-09-01T04:57:29.677Z,13.63
2022-09-01T05:00:23.288Z,13.60
2022-09-01T05:03:11.819Z,13.65
2022-09-01T05:06:21.356Z,13.76
2022-09-01T05:09:20.485Z,13.85
2022-09-01T05:12:16.811Z,13.92
2022-09-01T05:15:09.462Z,13.98
2022-09-01T05:18:02.275Z,14.12
2022-09-01T05:20:52.337Z,14.26
2022-09-01T05:23:42.096Z,14.38
2022-09-01T05:26:34.536Z,14.51
2022-09-01T05:29:23.964Z,14.60
2022-09-01T05:32:14.626Z,14.76
2022-09-01T05:35:02.998Z,14.90
2022-09-01T05:37:51.794Z,15.04
2022-09-01T05:40:43.706Z,15.22
2022-09-01T05:43:32.504Z,15.39
2022-09-01T05:46:23.784Z,15.54
2022-09-01T05:49:16.744Z,15.72
2022-09-01T05:52:09.188Z,15.82
2022-09-01T05:55:00.018Z,16.04
2022-09-01T05:57:50.106Z,16.19
2022-09-01T06:00:38.657Z,16.37
2022-09-01T06:03:27.712Z,16.53
2022-09-01T06:06:16.586Z,16.74
2022-09-01T06:09:07.043Z,16.93
2022-09-01T06:11:56.891Z,17.16
2022-09-01T06:14:49.108Z,17.39
2022-09-01T06:17:37.654Z,17.60
2022-09-01T06:20:27.501Z,17.73
2022-09-01T06:23:17.704Z,17.68
2022-09-01T06:26:07.969Z,17.65
2022-09-01T06:28:58.304Z,17.89
2022-09-01T06:31:51.707Z,17.95
2022-09-01T06:34:42.341Z,18.03
2022-09-01T06:37:30.685Z,17.98
2022-09-01T06:40:25.457Z,18.06
2022-09-01T06:43:17.260Z,17.93
2022-09-01T06:46:10.780Z,18.03
2022-09-01T06:49:00.172Z,18.06
2022-09-01T06:51:49.642Z,17.87
2022-09-01T06:54:39.479Z,18.38
2022-09-01T07:00:42.144Z,18.94
2022-09-01T07:03:32.041Z,18.86
2022-09-01T07:10:17.765Z,18.87
2022-09-01T07:13:10.071Z,18.96
2022-09-01T07:19:14.964Z,19.36
2022-09-01T07:25:34.980Z,19.55
2022-09-01T07:28:44.432Z,19.75
2022-09-01T07:34:47.605Z,20.14
2022-09-01T07:44:34.665Z,20.54
2022-09-01T07:47:57.909Z,20.37
2022-09-01T07:53:57.955Z,20.61
2022-09-01T07:56:47.571Z,20.65
2022-09-01T07:59:36.088Z,20.87
2022-09-01T08:02:32.933Z,21.20
2022-09-01T08:05:26.217Z,21.34
2022-09-01T08:08:24.971Z,21.25
2022-09-01T08:11:29.525Z,21.75
2022-09-01T08:14:33.796Z,21.57
2022-09-01T08:17:51.466Z,21.60
2022-09-01T08:20:35.085Z,21.77
2022-09-01T08:23:31.223Z,22.10
2022-09-01T08:26:23.592Z,22.32
2022-09-01T08:29:11.894Z,22.58
2022-09-01T08:32:03.805Z,22.46
2022-09-01T08:34:52.043Z,22.21
2022-09-01T08:37:41.278Z,22.08
2022-09-01T08:40:30.245Z,21.93
2022-09-01T08:43:31.835Z,21.72
2022-09-01T08:46:27.013Z,21.68
2022-09-01T08:49:25.239Z,21.78
2022-09-01T08:52:33.744Z,21.78
2022-09-01T08:55:32.705Z,22.02
2022-09-01T08:58:22.357Z,22.69
2022-09-01T09:01:45.512Z,22.93
2022-09-01T09:04:49.208Z,22.81
2022-09-01T09:08:06.853Z,23.00
2022-09-01T09:10:59.874Z,22.88
2022-09-01T09:14:04.048Z,22.89
2022-09-01T09:16:56.215Z,22.83
2022-09-01T09:19:46.636Z,22.76
2022-09-01T09:22:34.953Z,22.52
2022-09-01T09:25:24.251Z,22.62
2022-09-01T09:28:13.352Z,22.70
2022-09-01T09:31:28.658Z,22.62
2022-09-01T09:34:33.116Z,22.67
2022-09-01T09:37:25.204Z,22.61
2022-09-01T09:40:16.019Z,22.77
2022-09-01T09:43:08.313Z,22.77
2022-09-01T09:46:25.454Z,22.49
2022-09-01T09:49:21.613Z,22.45
2022-09-01T09:52:24.736Z,22.42
2022-09-01T09:55:23.426Z,22.43
2022-09-01T09:58:13.444Z,22.33
2022-09-01T10:01:08.638Z,22.16
2022-09-01T10:03:58.939Z,22.12
2022-09-01T10:06:48.971Z,22.09
2022-09-01T10:09:38.786Z,22.33
2022-09-01T10:12:27.741Z,22.33
2022-09-01T10:15:19.825Z,22.61
2022-09-01T10:18:20.571Z,22.80
2022-09-01T10:21:10.847Z,23.12
2022-09-01T10:27:15.549Z,24.10
2022-09-01T10:30:23.968Z,24.32
2022-09-01T10:33:20.094Z,23.97
2022-09-01T10:36:10.005Z,23.70
2022-09-01T10:39:04.919Z,24.11
2022-09-01T10:42:00.690Z,23.99
2022-09-01T10:44:57.905Z,24.17
2022-09-01T10:47:46.213Z,24.42
2022-09-01T10:50:35.665Z,24.52
2022-09-01T10:53:41.381Z,24.54
2022-09-01T10:56:44.165Z,24.51
2022-09-01T10:59:40.248Z,24.55
2022-09-01T11:02:36.004Z,24.08
2022-09-01T11:05:24.286Z,23.81
2022-09-01T11:08:50.946Z,23.72
2022-09-01T11:11:46.979Z,23.79
2022-09-01T11:14:49.111Z,24.30
2022-09-01T11:17:38.870Z,24.85
2022-09-01T11:20:30.097Z,24.93
2022-09-01T11:23:25.322Z,24.76
2022-09-01T11:26:47.513Z,24.63
2022-09-01T11:29:58.135Z,24.39
2022-09-01T11:32:49.168Z,24.10
2022-09-01T11:35:37.313Z,24.18
2022-09-01T11:38:26.540Z,23.76
2022-09-01T11:41:25.460Z,23.93
2022-09-01T11:44:30.695Z,23.62
2022-09-01T11:47:23.136Z,23.65
2022-09-01T11:50:21.325Z,23.60
2022-09-01T11:53:12.847Z,23.40
2022-09-01T11:56:15.374Z,23.21
2022-09-01T11:59:03.421Z,23.28
2022-09-01T12:01:58.573Z,23.19
2022-09-01T12:04:33.613Z,23.28
2022-09-01T12:07:03.816Z,23.37
2022-09-01T12:09:37.172Z,23.42
2022-09-01T12:12:06.145Z,23.51
2022-09-01T12:14:49.075Z,23.13
2022-09-01T12:17:22.367Z,23.52
2022-09-01T12:19:51.766Z,23.50
2022-09-01T12:22:21.495Z,23.80
2022-09-01T12:24:51.698Z,23.93
2022-09-01T12:27:20.177Z,24.40
2022-09-01T12:29:48.194Z,24.78
2022-09-01T12:32:17.427Z,24.63
2022-09-01T12:34:59.753Z,24.27
2022-09-01T12:37:28.987Z,23.74
2022-09-01T12:39:58.717Z,23.72
2022-09-01T12:42:29.894Z,23.54
2022-09-01T12:45:13.041Z,23.45
2022-09-01T12:47:50.227Z,23.64
2022-09-01T12:50:44.777Z,23.80
2022-09-01T12:53:21.868Z,24.30
2022-09-01T12:56:03.634Z,24.84
2022-09-01T12:58:32.217Z,25.40
2022-09-01T13:01:03.976Z,26.35
2022-09-01T13:03:32.716Z,27.07
2022-09-01T13:06:04.554Z,27.60
2022-09-01T13:08:36.010Z,27.92
2022-09-01T13:11:07.225Z,28.06
2022-09-01T13:13:35.209Z,28.16
2022-09-01T13:16:12.699Z,28.11
2022-09-01T13:21:30.701Z,27.40
2022-09-01T13:23:59.856Z,27.20
2022-09-01T13:26:28.040Z,26.46
2022-09-01T13:28:55.797Z,25.77
2022-09-01T13:31:31.811Z,25.48
2022-09-01T13:34:20.520Z,25.20
2022-09-01T13:36:51.523Z,25.21
2022-09-01T13:39:22.767Z,24.93
2022-09-01T13:41:50.989Z,24.83
2022-09-01T13:44:19.446Z,24.88
2022-09-01T13:50:04.661Z,24.70
2022-09-01T13:52:23.617Z,24.87
2022-09-01T13:54:52.761Z,24.84
2022-09-01T13:57:20.408Z,24.90
2022-09-01T13:59:48.125Z,25.07
2022-09-01T14:02:15.890Z,25.14
2022-09-01T14:04:44.313Z,25.12
2022-09-01T14:07:12.123Z,25.05
2022-09-01T14:09:39.748Z,25.02
2022-09-01T14:12:08.986Z,24.99
2022-09-01T14:17:24.321Z,24.95
2022-09-01T14:19:52.026Z,24.82
2022-09-01T14:22:19.913Z,24.92
2022-09-01T14:24:47.780Z,24.82
2022-09-01T14:27:16.843Z,24.95
2022-09-01T14:32:11.229Z,24.75
2022-09-01T14:34:38.954Z,24.71
2022-09-01T14:37:07.257Z,24.79
2022-09-01T14:39:34.971Z,24.94
2022-09-01T14:42:06.742Z,24.97
2022-09-01T14:44:38.548Z,25.03
2022-09-01T14:47:06.999Z,25.00
2022-09-01T14:49:40.341Z,25.42
2022-09-01T14:52:11.243Z,25.47
2022-09-01T14:54:41.991Z,25.88
2022-09-01T14:59:59.056Z,26.01
2022-09-01T15:02:29.102Z,26.16
2022-09-01T15:04:57.158Z,26.21
2022-09-01T15:07:25.593Z,26.08
2022-09-01T15:09:53.331Z,25.96
2022-09-01T15:12:21.658Z,25.75
2022-09-01T15:14:49.465Z,25.60
2022-09-01T15:17:18.528Z,25.79
2022-09-01T15:19:46.254Z,25.79
2022-09-01T15:22:14.412Z,25.88
2022-09-01T15:24:42.252Z,26.00
2022-09-01T15:27:11.400Z,25.87
2022-09-01T15:29:46.120Z,25.41
2022-09-01T15:32:28.071Z,25.21
2022-09-01T15:34:57.596Z,25.22
2022-09-01T15:37:25.314Z,25.26
2022-09-01T15:39:53.028Z,25.30
2022-09-01T15:42:21.767Z,25.25
2022-09-01T15:44:49.547Z,25.38
2022-09-01T15:47:17.351Z,25.58
2022-09-01T15:49:45.115Z,25.77
2022-09-01T15:52:14.161Z,25.74
2022-09-01T15:54:41.797Z,25.29
2022-09-01T15:57:09.571Z,24.98
2022-09-01T15:59:39.935Z,24.91
2022-09-01T16:02:09.690Z,24.12
2022-09-01T16:04:37.445Z,24.56
2022-09-01T16:07:05.318Z,24.74
2022-09-01T16:09:34.384Z,24.92
2022-09-01T16:12:02.126Z,24.95
2022-09-01T16:14:31.925Z,25.03
2022-09-01T16:17:04.201Z,25.08
2022-09-01T16:19:42.911Z,25.15
2022-09-01T16:22:17.066Z,25.04
2022-09-01T16:24:48.298Z,24.93
2022-09-01T16:27:18.401Z,24.99
2022-09-01T16:29:50.734Z,24.99
2022-09-01T16:32:21.353Z,24.98
2022-09-01T16:34:49.779Z,24.70
2022-09-01T16:37:32.168Z,25.06
2022-09-01T16:40:10.202Z,25.14
2022-09-01T16:42:46.971Z,25.03
2022-09-01T16:45:33.935Z,24.78
2022-09-01T16:48:08.427Z,24.54
2022-09-01T16:50:44.304Z,24.60
2022-09-01T16:53:30.030Z,24.55
2022-09-01T16:56:03.138Z,24.55
2022-09-01T16:58:43.708Z,24.54
2022-09-01T17:01:23.735Z,24.55
2022-09-01T17:03:58.636Z,24.52
2022-09-01T17:06:31.742Z,24.48
2022-09-01T17:09:10.247Z,24.38
2022-09-01T17:11:49.132Z,24.30
2022-09-01T17:14:25.424Z,24.16
2022-09-01T17:16:57.625Z,24.10
2022-09-01T17:19:28.990Z,23.91
2022-09-01T17:22:05.405Z,23.60
2022-09-01T17:24:38.441Z,23.63
2022-09-01T17:27:12.562Z,23.58
2022-09-01T17:29:44.741Z,23.36
2022-09-01T17:32:27.122Z,23.14
2022-09-01T17:35:11.204Z,22.98
2022-09-01T17:37:57.085Z,22.02
2022-09-01T17:40:35.105Z,22.75
2022-09-01T17:43:13.343Z,22.57
2022-09-01T17:45:52.722Z,22.34
2022-09-01T17:48:27.588Z,22.18
2022-09-01T17:51:04.227Z,21.95
2022-09-01T17:53:41.031Z,21.70
2022-09-01T17:56:20.497Z,21.48
2022-09-01T17:59:01.249Z,21.27
2022-09-01T18:01:35.785Z,21.10
2022-09-01T18:04:35.512Z,20.84
2022-09-01T18:07:11.965Z,20.61
2022-09-01T18:09:44.767Z,20.42
2022-09-01T18:12:18.453Z,20.36
2022-09-01T18:14:56.409Z,20.23
2022-09-01T18:17:29.394Z,20.10
2022-09-01T18:20:07.170Z,19.98
2022-09-01T18:22:41.620Z,19.87
2022-09-01T18:25:16.579Z,19.82
2022-09-01T18:27:47.249Z,19.70
2022-09-01T18:30:22.414Z,19.61
2022-09-01T18:33:14.915Z,19.51
2022-09-01T18:35:47.539Z,19.43
2022-09-01T18:38:25.216Z,19.32
2022-09-01T18:41:05.383Z,19.21
2022-09-01T18:43:37.406Z,19.17
2022-09-01T18:46:15.084Z,19.09
2022-09-01T18:48:56.010Z,18.99
2022-09-01T18:51:40.021Z,18.87
2022-09-01T18:54:15.245Z,18.74
2022-09-01T18:56:48.439Z,18.61
2022-09-01T18:59:37.085Z,18.42
2022-09-01T19:02:27.538Z,18.30
2022-09-01T19:04:59.524Z,18.06
2022-09-01T19:07:34.315Z,18.14
2022-09-01T19:10:08.169Z,17.77
2022-09-01T19:12:46.467Z,18.02
2022-09-01T19:15:21.549Z,17.97
2022-09-01T19:18:12.888Z,17.92
2022-09-01T19:20:47.797Z,17.91
2022-09-01T19:23:24.148Z,17.93
2022-09-01T19:25:58.514Z,17.87
2022-09-01T19:28:37.354Z,17.87
2022-09-01T19:31:12.346Z,17.86
2022-09-01T19:33:44.232Z,17.74
2022-09-01T19:36:18.868Z,17.88
2022-09-01T19:38:46.766Z,17.94
2022-09-01T19:41:19.157Z,17.82
2022-09-01T19:43:49.291Z,17.98
2022-09-01T19:46:24.447Z,17.97
2022-09-01T19:49:03.705Z,17.95
2022-09-01T19:51:39.333Z,17.98
2022-09-01T19:54:12.229Z,17.97
2022-09-01T19:56:49.894Z,17.66
2022-09-01T19:59:22.355Z,17.94
2022-09-01T20:01:58.044Z,18.02
2022-09-01T20:04:37.775Z,18.09
2022-09-01T20:07:10.334Z,18.19
2022-09-01T20:09:45.908Z,18.29
2022-09-01T20:12:23.580Z,18.35
2022-09-01T20:15:03.946Z,18.39
2022-09-01T20:17:38.192Z,18.42
2022-09-01T20:20:11.955Z,18.47
2022-09-01T20:22:52.787Z,18.48
2022-09-01T20:25:23.093Z,18.47
2022-09-01T20:27:56.321Z,18.47
2022-09-01T20:30:27.995Z,18.51
2022-09-01T20:33:02.264Z,18.47
2022-09-01T20:35:39.881Z,18.45
2022-09-01T20:38:33.385Z,18.45
2022-09-01T20:41:12.694Z,18.40
2022-09-01T20:43:44.741Z,18.37
2022-09-01T20:46:12.611Z,18.38
2022-09-01T20:48:42.472Z,18.35
2022-09-01T20:51:15.210Z,18.33
2022-09-01T20:54:05.839Z,18.29
2022-09-01T20:56:45.367Z,18.32
2022-09-01T20:59:21.258Z,18.27
2022-09-01T21:01:56.734Z,18.24
2022-09-01T21:04:38.145Z,18.24
2022-09-01T21:07:14.706Z,18.26
2022-09-01T21:09:53.834Z,18.33
2022-09-01T21:12:31.924Z,18.31
2022-09-01T21:15:17.741Z,18.30
2022-09-01T21:17:56.265Z,18.28
2022-09-01T21:20:35.378Z,18.26
2022-09-01T21:23:06.794Z,18.27
2022-09-01T21:25:34.615Z,18.30
2022-09-01T21:28:06.472Z,18.27
2022-09-01T21:30:36.738Z,18.24
2022-09-01T21:33:04.971Z,18.22
2022-09-01T21:35:33.244Z,18.18
2022-09-01T21:38:00.906Z,18.17
2022-09-01T21:40:30.362Z,18.18
2022-09-01T21:43:02.688Z,18.22
2022-09-01T21:45:32.893Z,18.15
2022-09-01T21:48:00.605Z,18.18
2022-09-01T21:50:28.729Z,18.20
2022-09-01T21:52:56.471Z,18.27
2022-09-01T21:55:24.884Z,18.20
2022-09-01T21:57:55.394Z,18.16
2022-09-01T22:00:26.563Z,18.15
2022-09-01T22:02:57.511Z,18.19
2022-09-01T22:05:26.098Z,18.25
2022-09-01T22:07:55.385Z,18.17
2022-09-01T22:10:28.033Z,18.25
2022-09-01T22:12:57.389Z,18.18
2022-09-01T22:15:26.390Z,18.16
2022-09-01T22:17:54.589Z,18.11
2022-09-01T22:20:24.033Z,17.82
2022-09-01T22:22:53.722Z,18.05
2022-09-01T22:25:23.817Z,18.00
2022-09-01T22:27:51.812Z,17.87
2022-09-01T22:30:20.927Z,17.85
2022-09-01T22:32:48.607Z,17.83
2022-09-01T22:35:18.235Z,17.81
2022-09-01T22:37:46.646Z,17.83
2022-09-01T22:40:15.872Z,17.72
2022-09-01T22:42:43.924Z,17.76
2022-09-01T22:45:13.787Z,17.75
2022-09-01T22:47:42.877Z,17.70
2022-09-01T22:50:11.306Z,17.57
2022-09-01T22:52:39.295Z,17.64
2022-09-01T22:55:09.201Z,17.63
2022-09-01T22:57:37.276Z,17.63
2022-09-01T23:00:09.712Z,17.44
2022-09-01T23:02:37.985Z,17.46
2022-09-01T23:05:08.236Z,17.61
2022-09-01T23:07:39.565Z,17.62
2022-09-01T23:10:10.166Z,17.59
2022-09-01T23:12:38.337Z,17.58
2022-09-01T23:15:07.145Z,17.58
2022-09-01T23:17:36.569Z,17.28
2022-09-01T23:20:06.610Z,17.52
2022-09-01T23:22:35.748Z,17.45
2022-09-01T23:25:03.622Z,17.39
2022-09-01T23:27:31.944Z,17.41
2022-09-01T23:30:00.164Z,17.34
2022-09-01T23:32:28.076Z,17.26
2022-09-01T23:34:56.417Z,17.21
2022-09-01T23:37:24.165Z,17.33
2022-09-01T23:39:53.469Z,17.31
2022-09-01T23:42:22.312Z,17.26
2022-09-01T23:44:50.473Z,17.17
2022-09-01T23:47:18.143Z,17.14
2022-09-01T23:49:46.069Z,17.14
2022-09-01T23:52:13.761Z,17.07
2022-09-01T23:54:41.428Z,16.99
2022-09-01T23:57:11.591Z,16.97
2022-09-01T23:59:39.434Z,16.93
